sensor_id;sensor_type;location;lat;lon;timestamp;P1;durP1;ratioP1;P2;durP2;ratioP2
3309;SDS011;1667;53.238;10.394;2023-08-12T00:00:23;3.50;;;2.70;;
3309;SDS011;1667;53.238;10.394;2023-08-12T00:05:23;3.33;;;3.07;;
3309;SDS011;1667;53.238;10.394;2023-08-12T00:10:21;2.27;;;2.17;;
3309;SDS011;1667;53.238;10.394;2023-08-12T00:15:20;4.20;;;2.53;;
3309;SDS011;1667;53.238;10.394;2023-08-12T00:20:19;1.83;;;1.73;;
3309;SDS011;1667;53.238;10.394;2023-08-12T00:25:19;2.50;;;2.30;;
3309;SDS011;1667;53.238;10.394;2023-08-12T00:30:18;2.53;;;2.33;;
3309;SDS011;1667;53.238;10.394;2023-08-12T00:35:16;4.20;;;2.50;;
3309;SDS011;1667;53.238;10.394;2023-08-12T00:40:15;3.30;;;2.10;;
3309;SDS011;1667;53.238;10.394;2023-08-12T00:45:15;3.53;;;2.40;;
3309;SDS011;1667;53.238;10.394;2023-08-12T00:50:13;2.20;;;2.00;;
3309;SDS011;1667;53.238;10.394;2023-08-12T00:55:12;2.33;;;2.13;;
3309;SDS011;1667;53.238;10.394;2023-08-12T01:00:12;2.83;;;2.63;;
3309;SDS011;1667;53.238;10.394;2023-08-12T01:05:12;1.80;;;1.70;;
3309;SDS011;1667;53.238;10.394;2023-08-12T01:10:11;3.33;;;2.50;;
3309;SDS011;1667;53.238;10.394;2023-08-12T01:15:13;2.80;;;2.60;;
3309;SDS011;1667;53.238;10.394;2023-08-12T01:20:20;2.50;;;2.30;;
3309;SDS011;1667;53.238;10.394;2023-08-12T01:25:23;2.17;;;2.07;;
3309;SDS011;1667;53.238;10.394;2023-08-12T01:30:21;3.60;;;3.10;;
3309;SDS011;1667;53.238;10.394;2023-08-12T01:35:21;3.13;;;2.27;;
3309;SDS011;1667;53.238;10.394;2023-08-12T01:40:26;2.80;;;2.60;;
3309;SDS011;1667;53.238;10.394;2023-08-12T01:45:27;2.97;;;2.50;;
3309;SDS011;1667;53.238;10.394;2023-08-12T01:50:29;2.50;;;2.33;;
3309;SDS011;1667;53.238;10.394;2023-08-12T01:55:28;2.60;;;2.40;;
3309;SDS011;1667;53.238;10.394;2023-08-12T02:00:27;2.73;;;2.10;;
3309;SDS011;1667;53.238;10.394;2023-08-12T02:05:25;2.53;;;2.33;;
3309;SDS011;1667;53.238;10.394;2023-08-12T02:10:24;2.80;;;2.57;;
3309;SDS011;1667;53.238;10.394;2023-08-12T02:15:24;2.27;;;2.07;;
3309;SDS011;1667;53.238;10.394;2023-08-12T02:20:22;3.27;;;2.93;;
3309;SDS011;1667;53.238;10.394;2023-08-12T02:25:21;2.43;;;2.23;;
3309;SDS011;1667;53.238;10.394;2023-08-12T02:30:19;4.47;;;2.90;;
3309;SDS011;1667;53.238;10.394;2023-08-12T02:35:20;3.17;;;2.73;;
3309;SDS011;1667;53.238;10.394;2023-08-12T02:40:18;3.10;;;2.63;;
3309;SDS011;1667;53.238;10.394;2023-08-12T02:45:16;2.77;;;2.53;;
3309;SDS011;1667;53.238;10.394;2023-08-12T02:50:15;2.90;;;2.50;;
3309;SDS011;1667;53.238;10.394;2023-08-12T02:55:15;3.00;;;2.70;;
3309;SDS011;1667;53.238;10.394;2023-08-12T03:00:16;2.00;;;1.77;;
3309;SDS011;1667;53.238;10.394;2023-08-12T03:05:15;2.97;;;2.40;;
3309;SDS011;1667;53.238;10.394;2023-08-12T03:10:16;3.10;;;2.90;;
3309;SDS011;1667;53.238;10.394;2023-08-12T03:15:14;2.30;;;2.20;;
3309;SDS011;1667;53.238;10.394;2023-08-12T03:20:13;2.03;;;1.80;;
3309;SDS011;1667;53.238;10.394;2023-08-12T03:31:03;2.90;;;2.70;;
3309;SDS011;1667;53.238;10.394;2023-08-12T03:36:04;2.80;;;2.20;;
3309;SDS011;1667;53.238;10.394;2023-08-12T03:41:03;3.47;;;3.00;;
3309;SDS011;1667;53.238;10.394;2023-08-12T03:46:04;2.67;;;2.47;;
3309;SDS011;1667;53.238;10.394;2023-08-12T03:51:03;4.10;;;2.70;;
3309;SDS011;1667;53.238;10.394;2023-08-12T03:56:01;2.83;;;2.63;;
3309;SDS011;1667;53.238;10.394;2023-08-12T04:01:01;3.33;;;2.60;;
3309;SDS011;1667;53.238;10.394;2023-08-12T04:06:01;2.80;;;2.60;;
3309;SDS011;1667;53.238;10.394;2023-08-12T04:11:00;3.90;;;2.90;;
3309;SDS011;1667;53.238;10.394;2023-08-12T04:15:59;3.30;;;3.00;;
3309;SDS011;1667;53.238;10.394;2023-08-12T04:20:59;2.77;;;2.57;;
3309;SDS011;1667;53.238;10.394;2023-08-12T04:25:58;5.70;;;3.30;;
3309;SDS011;1667;53.238;10.394;2023-08-12T04:30:57;2.93;;;2.70;;
3309;SDS011;1667;53.238;10.394;2023-08-12T04:35:56;4.13;;;3.80;;
3309;SDS011;1667;53.238;10.394;2023-08-12T04:40:56;3.30;;;3.00;;
3309;SDS011;1667;53.238;10.394;2023-08-12T04:45:56;5.23;;;3.57;;
3309;SDS011;1667;53.238;10.394;2023-08-12T04:50:55;3.27;;;2.83;;
3309;SDS011;1667;53.238;10.394;2023-08-12T04:55:59;7.87;;;4.10;;
3309;SDS011;1667;53.238;10.394;2023-08-12T05:01:00;3.00;;;2.73;;
3309;SDS011;1667;53.238;10.394;2023-08-12T05:06:00;3.70;;;3.33;;
3309;SDS011;1667;53.238;10.394;2023-08-12T05:11:01;2.60;;;2.40;;
3309;SDS011;1667;53.238;10.394;2023-08-12T05:15:59;3.73;;;3.13;;
3309;SDS011;1667;53.238;10.394;2023-08-12T05:20:58;2.70;;;2.43;;
3309;SDS011;1667;53.238;10.394;2023-08-12T05:25:57;2.73;;;2.50;;
3309;SDS011;1667;53.238;10.394;2023-08-12T05:30:57;3.90;;;2.63;;
3309;SDS011;1667;53.238;10.394;2023-08-12T05:35:56;3.10;;;2.90;;
3309;SDS011;1667;53.238;10.394;2023-08-12T05:40:54;2.57;;;2.37;;
3309;SDS011;1667;53.238;10.394;2023-08-12T05:45:53;3.33;;;3.10;;
3309;SDS011;1667;53.238;10.394;2023-08-12T05:56:42;5.60;;;3.53;;
3309;SDS011;1667;53.238;10.394;2023-08-12T06:01:40;3.40;;;3.10;;
3309;SDS011;1667;53.238;10.394;2023-08-12T06:06:39;3.87;;;3.43;;
3309;SDS011;1667;53.238;10.394;2023-08-12T06:11:37;3.97;;;3.30;;
3309;SDS011;1667;53.238;10.394;2023-08-12T06:16:37;4.03;;;2.63;;
3309;SDS011;1667;53.238;10.394;2023-08-12T06:21:35;3.70;;;3.40;;
3309;SDS011;1667;53.238;10.394;2023-08-12T06:26:34;4.50;;;3.20;;
3309;SDS011;1667;53.238;10.394;2023-08-12T06:31:32;6.60;;;3.90;;
3309;SDS011;1667;53.238;10.394;2023-08-12T06:36:32;3.00;;;2.80;;
3309;SDS011;1667;53.238;10.394;2023-08-12T06:41:31;4.07;;;3.70;;
3309;SDS011;1667;53.238;10.394;2023-08-12T06:46:29;3.90;;;3.60;;
3309;SDS011;1667;53.238;10.394;2023-08-12T06:51:28;4.90;;;4.43;;
3309;SDS011;1667;53.238;10.394;2023-08-12T06:56:28;3.90;;;3.40;;
3309;SDS011;1667;53.238;10.394;2023-08-12T07:01:26;6.57;;;4.43;;
3309;SDS011;1667;53.238;10.394;2023-08-12T07:06:25;3.60;;;3.10;;
3309;SDS011;1667;53.238;10.394;2023-08-12T07:11:23;3.47;;;3.07;;
3309;SDS011;1667;53.238;10.394;2023-08-12T07:16:23;3.40;;;3.20;;
3309;SDS011;1667;53.238;10.394;2023-08-12T07:21:22;3.90;;;3.50;;
3309;SDS011;1667;53.238;10.394;2023-08-12T07:26:20;7.10;;;4.77;;
3309;SDS011;1667;53.238;10.394;2023-08-12T07:31:19;4.33;;;3.93;;
3309;SDS011;1667;53.238;10.394;2023-08-12T07:36:19;4.83;;;4.50;;
3309;SDS011;1667;53.238;10.394;2023-08-12T07:41:17;4.50;;;3.93;;
3309;SDS011;1667;53.238;10.394;2023-08-12T07:46:16;6.03;;;4.97;;
3309;SDS011;1667;53.238;10.394;2023-08-12T07:51:15;6.40;;;4.40;;
3309;SDS011;1667;53.238;10.394;2023-08-12T07:56:14;3.50;;;3.30;;
3309;SDS011;1667;53.238;10.394;2023-08-12T08:01:13;6.97;;;6.27;;
3309;SDS011;1667;53.238;10.394;2023-08-12T08:06:11;6.97;;;6.10;;
3309;SDS011;1667;53.238;10.394;2023-08-12T08:11:10;4.00;;;3.70;;
3309;SDS011;1667;53.238;10.394;2023-08-12T08:16:10;6.90;;;6.30;;
3309;SDS011;1667;53.238;10.394;2023-08-12T08:21:09;6.93;;;6.30;;
3309;SDS011;1667;53.238;10.394;2023-08-12T08:26:08;7.57;;;6.83;;
3309;SDS011;1667;53.238;10.394;2023-08-12T08:31:07;6.43;;;5.87;;
3309;SDS011;1667;53.238;10.394;2023-08-12T08:36:07;5.77;;;4.13;;
3309;SDS011;1667;53.238;10.394;2023-08-12T08:41:05;9.90;;;6.27;;
3309;SDS011;1667;53.238;10.394;2023-08-12T08:46:07;7.80;;;6.90;;
3309;SDS011;1667;53.238;10.394;2023-08-12T08:51:07;7.53;;;6.73;;
3309;SDS011;1667;53.238;10.394;2023-08-12T08:56:08;6.90;;;6.20;;
3309;SDS011;1667;53.238;10.394;2023-08-12T09:01:11;7.40;;;6.70;;
3309;SDS011;1667;53.238;10.394;2023-08-12T09:06:12;4.90;;;3.93;;
3309;SDS011;1667;53.238;10.394;2023-08-12T09:11:12;6.53;;;5.70;;
3309;SDS011;1667;53.238;10.394;2023-08-12T09:16:13;6.60;;;5.90;;
3309;SDS011;1667;53.238;10.394;2023-08-12T09:21:14;9.77;;;7.80;;
3309;SDS011;1667;53.238;10.394;2023-08-12T09:26:13;9.83;;;6.37;;
3309;SDS011;1667;53.238;10.394;2023-08-12T09:31:21;4.30;;;3.90;;
3309;SDS011;1667;53.238;10.394;2023-08-12T09:42:12;5.63;;;5.10;;
3309;SDS011;1667;53.238;10.394;2023-08-12T09:47:12;5.30;;;4.80;;
3309;SDS011;1667;53.238;10.394;2023-08-12T09:52:11;7.10;;;5.50;;
3309;SDS011;1667;53.238;10.394;2023-08-12T09:57:10;5.17;;;4.67;;
3309;SDS011;1667;53.238;10.394;2023-08-12T10:02:12;7.20;;;5.47;;
3309;SDS011;1667;53.238;10.394;2023-08-12T10:07:15;9.00;;;7.00;;
3309;SDS011;1667;53.238;10.394;2023-08-12T10:12:17;5.80;;;4.30;;
3309;SDS011;1667;53.238;10.394;2023-08-12T10:17:16;6.60;;;5.87;;
3309;SDS011;1667;53.238;10.394;2023-08-12T10:22:36;7.30;;;6.27;;
3309;SDS011;1667;53.238;10.394;2023-08-12T10:33:16;7.30;;;4.73;;
3309;SDS011;1667;53.238;10.394;2023-08-12T10:38:16;8.27;;;5.17;;
3309;SDS011;1667;53.238;10.394;2023-08-12T10:43:17;4.57;;;4.13;;
3309;SDS011;1667;53.238;10.394;2023-08-12T10:48:16;6.70;;;4.50;;
3309;SDS011;1667;53.238;10.394;2023-08-12T10:53:21;5.87;;;5.37;;
3309;SDS011;1667;53.238;10.394;2023-08-12T10:58:26;8.90;;;6.00;;
3309;SDS011;1667;53.238;10.394;2023-08-12T11:03:25;5.80;;;5.20;;
3309;SDS011;1667;53.238;10.394;2023-08-12T11:08:32;4.83;;;3.90;;
3309;SDS011;1667;53.238;10.394;2023-08-12T11:13:32;6.50;;;5.33;;
3309;SDS011;1667;53.238;10.394;2023-08-12T11:18:44;5.23;;;4.57;;
3309;SDS011;1667;53.238;10.394;2023-08-12T11:23:44;5.00;;;4.50;;
3309;SDS011;1667;53.238;10.394;2023-08-12T11:28:45;10.47;;;4.83;;
3309;SDS011;1667;53.238;10.394;2023-08-12T11:33:44;6.67;;;4.80;;
3309;SDS011;1667;53.238;10.394;2023-08-12T11:38:43;5.30;;;4.80;;
3309;SDS011;1667;53.238;10.394;2023-08-12T11:43:41;7.03;;;5.47;;
3309;SDS011;1667;53.238;10.394;2023-08-12T11:48:41;6.20;;;5.60;;
3309;SDS011;1667;53.238;10.394;2023-08-12T11:53:41;6.73;;;5.90;;
3309;SDS011;1667;53.238;10.394;2023-08-12T11:58:40;6.70;;;5.20;;
3309;SDS011;1667;53.238;10.394;2023-08-12T12:03:51;5.20;;;4.40;;
3309;SDS011;1667;53.238;10.394;2023-08-12T12:08:50;5.57;;;4.60;;
3309;SDS011;1667;53.238;10.394;2023-08-12T12:13:51;5.50;;;5.00;;
3309;SDS011;1667;53.238;10.394;2023-08-12T12:18:49;10.07;;;6.53;;
3309;SDS011;1667;53.238;10.394;2023-08-12T12:23:56;4.60;;;4.20;;
3309;SDS011;1667;53.238;10.394;2023-08-12T12:28:54;8.17;;;6.10;;
3309;SDS011;1667;53.238;10.394;2023-08-12T12:33:54;6.20;;;5.70;;
3309;SDS011;1667;53.238;10.394;2023-08-12T12:38:52;5.93;;;5.33;;
3309;SDS011;1667;53.238;10.394;2023-08-12T12:43:52;8.70;;;5.80;;
3309;SDS011;1667;53.238;10.394;2023-08-12T12:48:50;7.00;;;5.87;;
3309;SDS011;1667;53.238;10.394;2023-08-12T12:59:31;5.30;;;4.17;;
3309;SDS011;1667;53.238;10.394;2023-08-12T13:04:29;4.77;;;4.23;;
3309;SDS011;1667;53.238;10.394;2023-08-12T13:09:28;5.10;;;4.70;;
3309;SDS011;1667;53.238;10.394;2023-08-12T13:14:27;5.90;;;5.33;;
3309;SDS011;1667;53.238;10.394;2023-08-12T13:19:28;4.97;;;4.27;;
3309;SDS011;1667;53.238;10.394;2023-08-12T13:24:26;5.57;;;4.67;;
3309;SDS011;1667;53.238;10.394;2023-08-12T13:29:25;5.83;;;4.50;;
3309;SDS011;1667;53.238;10.394;2023-08-12T13:34:25;5.33;;;4.83;;
3309;SDS011;1667;53.238;10.394;2023-08-12T13:39:25;4.73;;;4.23;;
3309;SDS011;1667;53.238;10.394;2023-08-12T13:44:38;7.73;;;4.23;;
3309;SDS011;1667;53.238;10.394;2023-08-12T13:49:36;5.10;;;4.40;;
3309;SDS011;1667;53.238;10.394;2023-08-12T13:54:36;4.60;;;4.20;;
3309;SDS011;1667;53.238;10.394;2023-08-12T13:59:34;6.13;;;3.93;;
3309;SDS011;1667;53.238;10.394;2023-08-12T14:04:33;4.37;;;3.97;;
3309;SDS011;1667;53.238;10.394;2023-08-12T14:09:31;4.57;;;4.03;;
3309;SDS011;1667;53.238;10.394;2023-08-12T14:14:32;4.00;;;3.60;;
3309;SDS011;1667;53.238;10.394;2023-08-12T14:19:30;4.53;;;4.10;;
3309;SDS011;1667;53.238;10.394;2023-08-12T14:24:29;6.30;;;4.90;;
3309;SDS011;1667;53.238;10.394;2023-08-12T14:29:28;4.33;;;3.93;;
3309;SDS011;1667;53.238;10.394;2023-08-12T14:34:28;6.00;;;4.17;;
3309;SDS011;1667;53.238;10.394;2023-08-12T14:39:27;5.70;;;4.70;;
3309;SDS011;1667;53.238;10.394;2023-08-12T14:44:25;5.20;;;4.70;;
3309;SDS011;1667;53.238;10.394;2023-08-12T14:49:30;5.17;;;4.33;;
3309;SDS011;1667;53.238;10.394;2023-08-12T14:54:28;7.30;;;5.20;;
3309;SDS011;1667;53.238;10.394;2023-08-12T14:59:27;9.97;;;8.97;;
3309;SDS011;1667;53.238;10.394;2023-08-12T15:04:25;15.57;;;12.70;;
3309;SDS011;1667;53.238;10.394;2023-08-12T15:09:25;16.23;;;11.50;;
3309;SDS011;1667;53.238;10.394;2023-08-12T15:14:24;16.87;;;10.30;;
3309;SDS011;1667;53.238;10.394;2023-08-12T15:19:23;6.60;;;5.90;;
3309;SDS011;1667;53.238;10.394;2023-08-12T15:24:21;6.13;;;5.47;;
3309;SDS011;1667;53.238;10.394;2023-08-12T15:29:21;5.00;;;4.50;;
3309;SDS011;1667;53.238;10.394;2023-08-12T15:34:19;4.00;;;3.70;;
3309;SDS011;1667;53.238;10.394;2023-08-12T15:39:18;5.10;;;4.70;;
3309;SDS011;1667;53.238;10.394;2023-08-12T15:49:50;4.37;;;3.57;;
3309;SDS011;1667;53.238;10.394;2023-08-12T15:54:49;4.17;;;3.83;;
3309;SDS011;1667;53.238;10.394;2023-08-12T15:59:47;4.10;;;3.80;;
3309;SDS011;1667;53.238;10.394;2023-08-12T16:04:47;4.73;;;4.20;;
3309;SDS011;1667;53.238;10.394;2023-08-12T16:09:46;4.93;;;4.53;;
3309;SDS011;1667;53.238;10.394;2023-08-12T16:14:44;4.80;;;4.20;;
3309;SDS011;1667;53.238;10.394;2023-08-12T16:19:47;4.60;;;3.97;;
3309;SDS011;1667;53.238;10.394;2023-08-12T16:24:45;4.53;;;4.13;;
3309;SDS011;1667;53.238;10.394;2023-08-12T16:29:44;3.90;;;3.60;;
3309;SDS011;1667;53.238;10.394;2023-08-12T16:34:42;3.50;;;3.23;;
3309;SDS011;1667;53.238;10.394;2023-08-12T16:39:42;3.27;;;3.07;;
3309;SDS011;1667;53.238;10.394;2023-08-12T16:44:40;3.90;;;3.60;;
3309;SDS011;1667;53.238;10.394;2023-08-12T16:49:39;3.13;;;2.93;;
3309;SDS011;1667;53.238;10.394;2023-08-12T17:00:04;3.20;;;2.20;;
3309;SDS011;1667;53.238;10.394;2023-08-12T17:05:04;2.23;;;1.77;;
3309;SDS011;1667;53.238;10.394;2023-08-12T17:10:03;1.77;;;1.67;;
3309;SDS011;1667;53.238;10.394;2023-08-12T17:15:04;1.27;;;1.20;;
3309;SDS011;1667;53.238;10.394;2023-08-12T17:20:04;0.90;;;0.90;;
3309;SDS011;1667;53.238;10.394;2023-08-12T17:25:06;1.00;;;1.00;;
3309;SDS011;1667;53.238;10.394;2023-08-12T17:30:06;0.83;;;0.83;;
3309;SDS011;1667;53.238;10.394;2023-08-12T17:35:05;1.03;;;0.87;;
3309;SDS011;1667;53.238;10.394;2023-08-12T17:40:06;0.93;;;0.93;;
3309;SDS011;1667;53.238;10.394;2023-08-12T17:45:08;1.00;;;0.90;;
3309;SDS011;1667;53.238;10.394;2023-08-12T17:50:11;1.00;;;0.90;;
3309;SDS011;1667;53.238;10.394;2023-08-12T17:55:11;0.80;;;0.80;;
3309;SDS011;1667;53.238;10.394;2023-08-12T18:00:10;0.87;;;0.87;;
3309;SDS011;1667;53.238;10.394;2023-08-12T18:05:13;0.80;;;0.80;;
3309;SDS011;1667;53.238;10.394;2023-08-12T18:10:12;0.90;;;0.90;;
3309;SDS011;1667;53.238;10.394;2023-08-12T18:15:11;1.10;;;0.80;;
3309;SDS011;1667;53.238;10.394;2023-08-12T18:20:09;1.20;;;1.10;;
3309;SDS011;1667;53.238;10.394;2023-08-12T18:25:09;1.03;;;1.00;;
3309;SDS011;1667;53.238;10.394;2023-08-12T18:30:10;1.93;;;1.10;;
3309;SDS011;1667;53.238;10.394;2023-08-12T18:35:08;1.20;;;1.10;;
3309;SDS011;1667;53.238;10.394;2023-08-12T18:40:08;3.27;;;0.90;;
3309;SDS011;1667;53.238;10.394;2023-08-12T18:45:07;0.83;;;0.80;;
3309;SDS011;1667;53.238;10.394;2023-08-12T18:50:08;1.23;;;0.90;;
3309;SDS011;1667;53.238;10.394;2023-08-12T18:55:06;0.90;;;0.90;;
3309;SDS011;1667;53.238;10.394;2023-08-12T19:00:07;1.00;;;1.00;;
3309;SDS011;1667;53.238;10.394;2023-08-12T19:05:10;1.10;;;1.10;;
3309;SDS011;1667;53.238;10.394;2023-08-12T19:10:09;1.10;;;1.00;;
3309;SDS011;1667;53.238;10.394;2023-08-12T19:15:09;1.30;;;1.20;;
3309;SDS011;1667;53.238;10.394;2023-08-12T19:20:08;1.33;;;1.20;;
3309;SDS011;1667;53.238;10.394;2023-08-12T19:25:08;2.00;;;1.37;;
3309;SDS011;1667;53.238;10.394;2023-08-12T19:30:07;1.43;;;1.07;;
3309;SDS011;1667;53.238;10.394;2023-08-12T19:35:08;1.60;;;1.50;;
3309;SDS011;1667;53.238;10.394;2023-08-12T19:40:07;3.30;;;1.53;;
3309;SDS011;1667;53.238;10.394;2023-08-12T19:45:07;1.67;;;1.40;;
3309;SDS011;1667;53.238;10.394;2023-08-12T19:50:08;2.43;;;1.77;;
3309;SDS011;1667;53.238;10.394;2023-08-12T19:55:08;2.20;;;1.80;;
3309;SDS011;1667;53.238;10.394;2023-08-12T20:00:07;2.80;;;1.37;;
3309;SDS011;1667;53.238;10.394;2023-08-12T20:05:12;3.27;;;1.67;;
3309;SDS011;1667;53.238;10.394;2023-08-12T20:10:12;2.10;;;1.70;;
3309;SDS011;1667;53.238;10.394;2023-08-12T20:15:12;2.83;;;1.63;;
3309;SDS011;1667;53.238;10.394;2023-08-12T20:20:13;2.97;;;1.80;;
3309;SDS011;1667;53.238;10.394;2023-08-12T20:25:14;3.83;;;1.50;;
3309;SDS011;1667;53.238;10.394;2023-08-12T20:30:13;3.93;;;1.53;;
3309;SDS011;1667;53.238;10.394;2023-08-12T20:35:13;1.93;;;1.73;;
3309;SDS011;1667;53.238;10.394;2023-08-12T20:40:11;1.53;;;1.43;;
3309;SDS011;1667;53.238;10.394;2023-08-12T20:45:10;2.80;;;1.57;;
3309;SDS011;1667;53.238;10.394;2023-08-12T20:50:09;1.93;;;1.70;;
3309;SDS011;1667;53.238;10.394;2023-08-12T20:55:09;1.80;;;1.70;;
3309;SDS011;1667;53.238;10.394;2023-08-12T21:00:08;1.60;;;1.50;;
3309;SDS011;1667;53.238;10.394;2023-08-12T21:05:08;3.37;;;1.60;;
3309;SDS011;1667;53.238;10.394;2023-08-12T21:10:07;4.53;;;2.10;;
3309;SDS011;1667;53.238;10.394;2023-08-12T21:15:08;4.17;;;2.20;;
3309;SDS011;1667;53.238;10.394;2023-08-12T21:20:07;2.53;;;1.60;;
3309;SDS011;1667;53.238;10.394;2023-08-12T21:25:07;4.20;;;1.60;;
3309;SDS011;1667;53.238;10.394;2023-08-12T21:36:10;5.23;;;2.20;;
3309;SDS011;1667;53.238;10.394;2023-08-12T21:41:09;4.87;;;2.17;;
3309;SDS011;1667;53.238;10.394;2023-08-12T21:46:07;2.00;;;1.60;;
3309;SDS011;1667;53.238;10.394;2023-08-12T21:51:06;2.00;;;1.33;;
3309;SDS011;1667;53.238;10.394;2023-08-12T21:56:06;3.43;;;1.77;;
3309;SDS011;1667;53.238;10.394;2023-08-12T22:01:05;4.63;;;1.80;;
3309;SDS011;1667;53.238;10.394;2023-08-12T22:06:03;6.17;;;2.20;;
3309;SDS011;1667;53.238;10.394;2023-08-12T22:11:02;3.73;;;2.50;;
3309;SDS011;1667;53.238;10.394;2023-08-12T22:16:02;4.37;;;2.10;;
3309;SDS011;1667;53.238;10.394;2023-08-12T22:21:01;2.53;;;1.73;;
3309;SDS011;1667;53.238;10.394;2023-08-12T22:26:00;4.40;;;1.90;;
3309;SDS011;1667;53.238;10.394;2023-08-12T22:30:58;1.83;;;1.60;;
3309;SDS011;1667;53.238;10.394;2023-08-12T22:41:26;3.10;;;2.13;;
3309;SDS011;1667;53.238;10.394;2023-08-12T22:46:24;5.50;;;2.83;;
3309;SDS011;1667;53.238;10.394;2023-08-12T22:51:23;4.10;;;2.63;;
3309;SDS011;1667;53.238;10.394;2023-08-12T22:56:23;4.63;;;1.90;;
3309;SDS011;1667;53.238;10.394;2023-08-12T23:01:21;2.53;;;1.60;;
3309;SDS011;1667;53.238;10.394;2023-08-12T23:06:20;2.77;;;1.70;;
3309;SDS011;1667;53.238;10.394;2023-08-12T23:11:19;2.43;;;1.97;;
3309;SDS011;1667;53.238;10.394;2023-08-12T23:16:19;4.30;;;1.80;;
3309;SDS011;1667;53.238;10.394;2023-08-12T23:21:17;2.13;;;1.67;;
3309;SDS011;1667;53.238;10.394;2023-08-12T23:26:16;3.70;;;1.60;;
3309;SDS011;1667;53.238;10.394;2023-08-12T23:31:14;2.50;;;2.00;;
3309;SDS011;1667;53.238;10.394;2023-08-12T23:36:15;4.40;;;1.80;;
3309;SDS011;1667;53.238;10.394;2023-08-12T23:41:13;2.93;;;1.80;;
3309;SDS011;1667;53.238;10.394;2023-08-12T23:46:11;3.60;;;2.50;;
3309;SDS011;1667;53.238;10.394;2023-08-12T23:51:10;6.67;;;1.80;;
3309;SDS011;1667;53.238;10.394;2023-08-12T23:56:10;2.30;;;1.57;;
